createdAt,value
2018-06-22T00:02:12.299Z,20.78
2018-06-22T00:04:41.922Z,20.65
2018-06-22T00:07:10.419Z,20.58
2018-06-22T00:09:38.899Z,20.61
2018-06-22T00:12:07.643Z,21.05
2018-06-22T00:14:36.126Z,19.91
2018-06-22T00:17:04.614Z,20.03
2018-06-22T00:19:33.039Z,20.10
2018-06-22T00:22:01.782Z,20.22
2018-06-22T00:24:30.171Z,20.14
2018-06-22T00:26:58.646Z,20.12
2018-06-22T00:29:27.066Z,20.21
2018-06-22T00:31:55.699Z,20.43
2018-06-22T00:34:24.135Z,20.18
2018-06-22T00:36:52.681Z,20.20
2018-06-22T00:39:21.106Z,20.13
2018-06-22T00:41:49.539Z,20.07
2018-06-22T00:44:18.003Z,20.02
2018-06-22T00:46:46.407Z,19.84
2018-06-22T00:49:14.851Z,19.43
2018-06-22T00:51:43.327Z,19.64
2018-06-22T00:54:16.815Z,19.69
2018-06-22T00:56:45.727Z,19.16
2018-06-22T00:59:14.505Z,19.42
2018-06-22T01:01:42.918Z,19.44
2018-06-22T01:04:12.091Z,18.29
2018-06-22T01:17:08.902Z,18.98
2018-06-22T01:19:37.328Z,17.57
2018-06-22T01:22:05.734Z,17.83
2018-06-22T01:24:34.133Z,17.94
2018-06-22T01:27:02.568Z,17.59
2018-06-22T01:29:32.257Z,17.74
2018-06-22T01:32:01.883Z,17.40
2018-06-22T01:34:30.339Z,17.54
2018-06-22T01:36:58.736Z,17.55
2018-06-22T01:39:27.186Z,17.76
2018-06-22T01:41:55.618Z,17.60
2018-06-22T01:44:24.067Z,17.58
2018-06-22T01:46:52.498Z,17.75
2018-06-22T01:49:20.900Z,17.71
2018-06-22T01:51:49.334Z,17.88
2018-06-22T01:54:17.767Z,17.86
2018-06-22T01:56:46.227Z,17.81
2018-06-22T01:59:14.668Z,17.76
2018-06-22T02:01:43.088Z,17.67
2018-06-22T02:04:11.562Z,17.58
2018-06-22T02:06:39.991Z,17.46
2018-06-22T02:09:11.768Z,17.63
2018-06-22T02:11:40.319Z,17.35
2018-06-22T02:14:08.783Z,17.46
2018-06-22T02:16:37.535Z,17.52
2018-06-22T02:19:06.015Z,17.31
2018-06-22T02:21:34.424Z,17.26
2018-06-22T02:24:02.837Z,17.25
2018-06-22T02:26:31.285Z,17.14
2018-06-22T02:28:59.680Z,17.21
2018-06-22T02:31:28.128Z,17.13
2018-06-22T02:33:56.525Z,17.13
2018-06-22T02:36:24.968Z,17.17
2018-06-22T02:38:53.409Z,17.10
2018-06-22T02:41:21.796Z,17.21
2018-06-22T02:43:50.195Z,17.12
2018-06-22T02:46:18.626Z,17.17
2018-06-22T02:48:47.490Z,17.39
2018-06-22T02:51:15.928Z,17.18
2018-06-22T02:53:44.329Z,17.76
2018-06-22T02:56:12.749Z,18.11
2018-06-22T02:58:41.167Z,18.10
2018-06-22T03:01:09.615Z,18.14
2018-06-22T03:03:38.076Z,17.91
2018-06-22T03:06:06.493Z,18.34
2018-06-22T03:08:34.945Z,17.92
2018-06-22T03:11:03.347Z,18.16
2018-06-22T03:13:31.759Z,18.14
2018-06-22T03:16:00.424Z,18.23
2018-06-22T03:18:28.831Z,17.64
2018-06-22T03:20:57.227Z,18.21
2018-06-22T03:23:25.664Z,17.88
2018-06-22T03:25:54.063Z,18.67
2018-06-22T03:28:22.502Z,17.92
2018-06-22T03:30:51.009Z,18.41
2018-06-22T03:33:19.432Z,18.80
2018-06-22T03:35:47.916Z,18.35
2018-06-22T03:38:16.592Z,17.72
2018-06-22T03:40:45.024Z,17.69
2018-06-22T03:43:13.520Z,18.31
2018-06-22T03:45:41.923Z,17.88
2018-06-22T03:48:10.383Z,18.00
2018-06-22T03:50:38.791Z,18.41
2018-06-22T03:53:07.379Z,18.10
2018-06-22T03:55:36.032Z,17.73
2018-06-22T03:58:04.481Z,17.74
2018-06-22T04:00:33.096Z,17.71
2018-06-22T04:03:01.541Z,17.53
2018-06-22T04:05:29.960Z,17.50
2018-06-22T04:07:58.380Z,17.40
2018-06-22T04:10:26.948Z,17.53
2018-06-22T04:12:55.377Z,17.34
2018-06-22T04:15:23.770Z,17.31
2018-06-22T04:19:22.172Z,17.24
2018-06-22T04:21:50.805Z,17.35
2018-06-22T04:24:19.244Z,17.28
2018-06-22T04:26:48.126Z,17.24
2018-06-22T04:29:18.664Z,17.17
2018-06-22T04:31:47.071Z,17.25
2018-06-22T04:34:16.114Z,16.95
2018-06-22T04:36:44.539Z,16.90
2018-06-22T04:39:14.673Z,16.78
2018-06-22T04:41:44.008Z,16.74
2018-06-22T04:44:12.681Z,16.76
2018-06-22T04:46:41.124Z,16.89
2018-06-22T04:49:09.582Z,16.70
2018-06-22T04:51:37.984Z,16.63
2018-06-22T04:54:06.446Z,16.74
2018-06-22T04:56:34.876Z,17.58
2018-06-22T04:59:03.310Z,17.00
2018-06-22T05:01:31.788Z,16.86
2018-06-22T05:04:00.324Z,16.88
2018-06-22T05:06:28.812Z,17.04
2018-06-22T05:08:57.282Z,16.92
2018-06-22T05:11:26.003Z,16.88
2018-06-22T05:13:54.636Z,17.00
2018-06-22T05:16:23.028Z,17.04
2018-06-22T05:18:51.476Z,17.07
2018-06-22T05:21:19.916Z,17.16
2018-06-22T05:23:48.876Z,17.32
2018-06-22T05:26:17.319Z,17.26
2018-06-22T05:28:45.725Z,17.22
2018-06-22T05:31:14.176Z,17.00
2018-06-22T05:33:42.572Z,17.19
2018-06-22T05:36:11.144Z,17.14
2018-06-22T05:38:39.554Z,17.10
2018-06-22T05:41:07.968Z,17.53
2018-06-22T05:43:36.436Z,17.34
2018-06-22T05:46:04.831Z,17.40
2018-06-22T05:48:33.371Z,17.11
2018-06-22T05:51:01.836Z,17.52
2018-06-22T05:53:30.235Z,17.11
2018-06-22T05:55:58.711Z,17.39
2018-06-22T05:58:31.296Z,17.22
2018-06-22T06:01:03.155Z,16.89
2018-06-22T06:03:32.011Z,16.95
2018-06-22T06:06:00.384Z,17.22
2018-06-22T06:08:28.824Z,17.10
2018-06-22T06:10:57.212Z,17.08
2018-06-22T06:13:25.957Z,17.18
2018-06-22T06:15:54.523Z,17.07
2018-06-22T06:18:22.936Z,17.02
2018-06-22T06:20:51.360Z,17.07
2018-06-22T06:23:19.816Z,17.05
2018-06-22T06:25:48.497Z,17.05
2018-06-22T06:28:16.922Z,16.95
2018-06-22T06:30:45.432Z,17.01
2018-06-22T06:33:13.881Z,16.95
2018-06-22T06:35:42.351Z,17.07
2018-06-22T06:38:10.816Z,17.15
2018-06-22T06:40:39.207Z,17.09
2018-06-22T06:43:07.614Z,16.97
2018-06-22T06:45:36.203Z,17.18
2018-06-22T06:48:04.691Z,17.11
2018-06-22T06:50:36.190Z,17.21
2018-06-22T06:53:06.356Z,17.57
2018-06-22T06:55:38.343Z,17.77
2018-06-22T06:58:08.213Z,17.34
2018-06-22T07:00:36.869Z,17.66
2018-06-22T07:03:05.731Z,17.28
2018-06-22T07:05:34.157Z,17.54
2018-06-22T07:08:02.656Z,17.51
2018-06-22T07:10:31.081Z,17.50
2018-06-22T07:12:59.541Z,17.46
2018-06-22T07:15:27.949Z,17.44
2018-06-22T07:17:56.356Z,17.47
2018-06-22T07:20:24.783Z,17.24
2018-06-22T07:22:53.157Z,17.40
2018-06-22T07:25:21.579Z,17.60
2018-06-22T07:27:50.110Z,18.47
2018-06-22T07:30:18.806Z,18.57
2018-06-22T07:32:47.598Z,18.71
2018-06-22T07:35:16.182Z,18.00
2018-06-22T07:37:44.924Z,17.72
2018-06-22T07:40:13.867Z,17.93
2018-06-22T07:42:42.557Z,17.63
2018-06-22T07:45:12.338Z,17.61
2018-06-22T07:47:40.796Z,17.65
2018-06-22T07:50:09.239Z,17.89
2018-06-22T07:52:37.929Z,17.70
2018-06-22T07:55:07.012Z,18.00
2018-06-22T07:57:35.813Z,17.78
2018-06-22T08:00:04.933Z,17.50
2018-06-22T08:02:33.348Z,17.82
2018-06-22T08:05:01.759Z,17.85
2018-06-22T08:07:30.251Z,18.34
2018-06-22T08:09:58.787Z,18.29
2018-06-22T08:12:27.380Z,18.21
2018-06-22T08:14:56.323Z,18.01
2018-06-22T08:17:24.926Z,18.00
2018-06-22T08:19:53.419Z,18.07
2018-06-22T08:22:21.940Z,18.34
2018-06-22T08:24:50.357Z,18.45
2018-06-22T08:27:18.878Z,18.50
2018-06-22T08:29:47.308Z,18.30
2018-06-22T08:32:16.046Z,18.44
2018-06-22T08:34:44.500Z,18.43
2018-06-22T08:37:13.004Z,18.73
2018-06-22T08:39:41.463Z,18.37
2018-06-22T08:42:10.199Z,18.31
2018-06-22T08:44:38.670Z,18.87
2018-06-22T08:47:07.189Z,18.93
2018-06-22T08:49:36.148Z,18.89
2018-06-22T08:52:04.775Z,18.21
2018-06-22T08:54:33.373Z,18.56
2018-06-22T08:57:01.820Z,18.27
2018-06-22T08:59:30.250Z,18.24
2018-06-22T09:01:58.731Z,17.89
2018-06-22T09:04:27.092Z,18.21
2018-06-22T09:06:55.992Z,18.19
2018-06-22T09:09:24.480Z,17.80
2018-06-22T09:11:52.920Z,18.32
2018-06-22T09:14:21.371Z,18.30
2018-06-22T09:16:49.768Z,18.03
2018-06-22T09:19:18.195Z,18.54
2018-06-22T09:21:46.601Z,18.90
2018-06-22T09:24:15.017Z,19.07
2018-06-22T09:26:43.451Z,19.23
2018-06-22T09:29:11.896Z,19.24
2018-06-22T09:31:40.860Z,18.76
2018-06-22T09:34:09.348Z,18.58
2018-06-22T09:36:37.811Z,18.64
2018-06-22T09:39:08.687Z,18.90
2018-06-22T09:41:37.332Z,19.69
2018-06-22T09:44:06.534Z,19.29
2018-06-22T09:46:34.972Z,19.63
2018-06-22T09:49:03.424Z,19.37
2018-06-22T09:51:31.866Z,18.44
2018-06-22T09:54:00.652Z,18.72
2018-06-22T09:56:29.063Z,19.88
2018-06-22T09:58:57.480Z,19.58
2018-06-22T10:01:26.103Z,19.53
2018-06-22T10:03:54.515Z,19.59
2018-06-22T10:06:22.954Z,19.28
2018-06-22T10:08:51.398Z,19.28
2018-06-22T10:11:19.987Z,19.14
2018-06-22T10:13:48.428Z,19.19
2018-06-22T10:16:16.840Z,19.47
2018-06-22T10:18:45.234Z,19.50
2018-06-22T10:21:13.885Z,20.12
2018-06-22T10:23:42.307Z,19.63
2018-06-22T10:26:10.781Z,19.39
2018-06-22T10:28:39.232Z,18.93
2018-06-22T10:37:51.696Z,19.05
2018-06-22T10:40:20.165Z,18.78
2018-06-22T10:42:48.626Z,18.99
2018-06-22T10:45:17.068Z,18.91
2018-06-22T10:47:46.069Z,19.17
2018-06-22T10:50:15.207Z,19.05
2018-06-22T10:52:44.087Z,19.75
2018-06-22T10:55:13.834Z,19.18
2018-06-22T10:57:42.526Z,19.12
2018-06-22T11:00:11.115Z,19.59
2018-06-22T11:02:39.724Z,19.11
2018-06-22T11:05:08.554Z,18.79
2018-06-22T11:07:37.334Z,18.81
2018-06-22T11:10:06.880Z,18.68
2018-06-22T11:12:35.320Z,18.49
2018-06-22T11:15:03.813Z,18.36
2018-06-22T11:19:02.091Z,18.38
2018-06-22T11:21:30.638Z,18.21
2018-06-22T11:23:59.127Z,18.46
2018-06-22T11:26:27.918Z,18.51
2018-06-22T11:28:57.536Z,18.63
2018-06-22T11:31:26.671Z,18.27
2018-06-22T11:33:55.268Z,18.33
2018-06-22T11:36:24.250Z,18.13
2018-06-22T11:38:53.130Z,18.15
2018-06-22T11:41:21.659Z,17.80
2018-06-22T11:43:50.108Z,18.10
2018-06-22T11:46:18.625Z,18.49
2018-06-22T11:48:47.511Z,18.71
2018-06-22T11:51:15.994Z,18.27
2018-06-22T11:53:44.591Z,18.16
2018-06-22T11:56:13.020Z,17.89
2018-06-22T11:58:41.470Z,17.86
2018-06-22T12:01:10.175Z,17.85
2018-06-22T12:03:38.854Z,17.79
2018-06-22T12:06:07.380Z,18.09
2018-06-22T12:08:36.151Z,17.95
2018-06-22T12:11:04.872Z,18.10
2018-06-22T12:13:33.456Z,17.92
2018-06-22T12:16:02.018Z,18.02
2018-06-22T12:18:30.469Z,18.33
2018-06-22T12:20:59.003Z,18.47
2018-06-22T12:23:27.575Z,18.23
2018-06-22T12:25:56.003Z,18.54
2018-06-22T12:28:24.467Z,18.67
2018-06-22T12:30:53.044Z,19.01
2018-06-22T12:33:21.829Z,19.07
2018-06-22T12:35:50.620Z,18.53
2018-06-22T12:38:19.178Z,18.72
2018-06-22T12:40:47.617Z,18.66
2018-06-22T12:43:16.043Z,18.22
2018-06-22T12:45:44.484Z,18.39
2018-06-22T12:48:13.426Z,18.35
2018-06-22T12:50:41.868Z,18.51
2018-06-22T12:53:10.282Z,18.36
2018-06-22T12:55:38.712Z,18.42
2018-06-22T12:58:07.351Z,18.72
2018-06-22T13:00:36.144Z,19.36
2018-06-22T13:03:04.532Z,19.14
2018-06-22T13:05:32.936Z,19.64
2018-06-22T13:08:01.380Z,19.42
2018-06-22T13:10:29.784Z,18.82
2018-06-22T13:12:58.268Z,18.67
2018-06-22T13:15:26.675Z,18.48
2018-06-22T13:17:55.060Z,18.26
2018-06-22T13:20:23.852Z,18.42
2018-06-22T13:22:52.308Z,18.02
2018-06-22T13:25:20.888Z,18.81
2018-06-22T13:27:49.306Z,18.26
2018-06-22T13:30:17.780Z,18.25
2018-06-22T13:32:46.172Z,18.67
2018-06-22T13:35:14.591Z,18.55
2018-06-22T13:37:43.020Z,18.13
2018-06-22T13:40:11.463Z,18.06
2018-06-22T13:42:39.919Z,18.00
2018-06-22T13:45:08.351Z,17.72
2018-06-22T13:47:36.814Z,16.94
2018-06-22T13:50:05.290Z,16.96
2018-06-22T13:52:33.732Z,17.18
2018-06-22T13:55:02.193Z,17.23
2018-06-22T13:57:30.578Z,17.19
2018-06-22T13:59:59.245Z,16.23
2018-06-22T14:02:27.692Z,16.12
2018-06-22T14:05:01.115Z,16.17
2018-06-22T14:07:29.527Z,15.58
2018-06-22T14:09:58.280Z,15.05
2018-06-22T14:12:26.664Z,16.28
2018-06-22T14:14:55.104Z,14.86
2018-06-22T14:17:23.555Z,14.69
2018-06-22T14:19:51.962Z,14.70
2018-06-22T14:22:20.413Z,14.63
2018-06-22T14:24:48.836Z,14.79
2018-06-22T14:27:17.563Z,15.90
2018-06-22T14:29:46.284Z,15.86
2018-06-22T14:32:14.720Z,17.48
2018-06-22T14:34:43.167Z,17.70
2018-06-22T14:37:11.567Z,19.95
2018-06-22T14:39:40.347Z,20.58
2018-06-22T14:42:08.779Z,21.26
2018-06-22T14:44:37.471Z,20.76
2018-06-22T14:47:06.346Z,20.48
2018-06-22T14:49:34.851Z,20.97
2018-06-22T14:52:03.432Z,19.85
2018-06-22T14:54:37.108Z,20.76
2018-06-22T14:57:11.322Z,22.19
2018-06-22T14:59:45.029Z,19.79
2018-06-22T15:02:18.652Z,19.77
2018-06-22T15:04:52.255Z,21.65
2018-06-22T15:07:25.734Z,19.89
2018-06-22T15:09:54.151Z,20.65
2018-06-22T15:12:22.631Z,18.29
2018-06-22T15:14:51.036Z,21.98
2018-06-22T15:17:19.619Z,21.19
2018-06-22T15:19:48.048Z,21.17
2018-06-22T15:22:16.460Z,19.01
2018-06-22T15:24:44.855Z,18.12
2018-06-22T15:27:13.324Z,18.24
2018-06-22T15:29:41.778Z,17.74
2018-06-22T15:32:10.196Z,17.69
2018-06-22T15:34:43.803Z,17.35
2018-06-22T15:37:17.568Z,17.21
2018-06-22T15:39:51.211Z,17.24
2018-06-22T15:42:24.879Z,16.99
2018-06-22T15:44:58.477Z,16.86
2018-06-22T15:47:32.075Z,16.51
2018-06-22T15:50:06.237Z,16.24
2018-06-22T15:52:39.985Z,15.53
2018-06-22T15:55:17.474Z,15.69
2018-06-22T15:57:45.924Z,15.89
2018-06-22T16:00:14.440Z,15.89
2018-06-22T16:02:48.059Z,15.96
2018-06-22T16:05:16.611Z,15.76
2018-06-22T16:07:46.547Z,16.05
2018-06-22T16:10:15.044Z,15.85
2018-06-22T16:12:43.632Z,15.53
2018-06-22T16:15:18.920Z,15.55
2018-06-22T16:17:53.671Z,14.98
2018-06-22T16:20:27.345Z,14.96
2018-06-22T16:23:01.347Z,14.57
2018-06-22T16:25:35.162Z,14.54
2018-06-22T16:28:04.843Z,14.04
2018-06-22T16:30:33.312Z,13.82
2018-06-22T16:33:01.705Z,13.69
2018-06-22T16:35:30.137Z,13.41
2018-06-22T16:37:58.732Z,13.06
2018-06-22T16:40:27.344Z,12.92
2018-06-22T16:42:55.775Z,12.52
2018-06-22T16:45:24.252Z,12.28
2018-06-22T16:47:52.769Z,12.25
2018-06-22T16:50:21.362Z,12.35
2018-06-22T16:52:49.879Z,12.36
2018-06-22T16:55:18.353Z,12.46
2018-06-22T16:57:46.817Z,12.61
2018-06-22T17:00:15.293Z,12.69
2018-06-22T17:02:43.731Z,12.82
2018-06-22T17:05:12.182Z,13.03
2018-06-22T17:07:45.942Z,13.38
2018-06-22T17:10:19.669Z,17.51
2018-06-22T17:12:53.527Z,17.94
2018-06-22T17:15:27.229Z,18.52
2018-06-22T17:18:00.963Z,18.62
2018-06-22T17:20:29.444Z,19.30
2018-06-22T17:22:57.843Z,18.57
2018-06-22T17:25:27.209Z,17.97
2018-06-22T17:27:55.610Z,17.72
2018-06-22T17:30:24.108Z,17.89
2018-06-22T17:32:52.532Z,14.85
2018-06-22T17:35:21.310Z,14.91
2018-06-22T17:44:33.808Z,13.55
2018-06-22T17:47:02.308Z,13.81
2018-06-22T17:49:30.745Z,13.88
2018-06-22T17:51:59.377Z,13.98
2018-06-22T17:54:27.836Z,13.93
2018-06-22T17:56:56.291Z,13.60
2018-06-22T17:59:29.976Z,13.56
2018-06-22T18:02:03.607Z,13.58
2018-06-22T18:04:38.431Z,13.67
2018-06-22T18:07:12.095Z,13.86
2018-06-22T18:09:45.851Z,15.88
2018-06-22T18:12:19.605Z,17.10
2018-06-22T18:14:48.027Z,17.28
2018-06-22T18:17:16.516Z,18.05
2018-06-22T18:19:44.929Z,17.44
2018-06-22T18:22:13.335Z,17.39
2018-06-22T18:27:40.695Z,18.46
2018-06-22T18:30:16.558Z,17.73
2018-06-22T18:32:45.171Z,17.53
2018-06-22T18:35:14.999Z,16.17
2018-06-22T18:37:43.476Z,15.08
2018-06-22T18:40:12.707Z,14.64
2018-06-22T18:42:41.152Z,14.36
2018-06-22T18:45:11.452Z,14.06
2018-06-22T18:47:40.566Z,14.15
2018-06-22T18:50:09.302Z,14.12
2018-06-22T18:52:42.792Z,13.77
2018-06-22T18:55:16.306Z,13.67
2018-06-22T18:57:50.103Z,13.72
2018-06-22T19:00:23.565Z,13.68
2018-06-22T19:02:57.278Z,13.44
2018-06-22T19:05:26.271Z,13.48
2018-06-22T19:07:54.691Z,13.36
2018-06-22T19:10:23.135Z,13.48
2018-06-22T19:12:51.684Z,13.55
2018-06-22T19:15:20.434Z,13.25
2018-06-22T19:17:48.912Z,13.23
2018-06-22T19:20:17.428Z,13.34
2018-06-22T19:22:45.864Z,13.39
2018-06-22T19:25:14.292Z,13.11
2018-06-22T19:27:43.111Z,13.41
2018-06-22T19:30:14.648Z,13.14
2018-06-22T19:32:43.211Z,13.18
2018-06-22T19:35:12.748Z,13.29
2018-06-22T19:37:42.646Z,13.33
2018-06-22T19:40:11.128Z,13.10
2018-06-22T19:42:39.561Z,13.02
2018-06-22T19:45:13.323Z,12.99
2018-06-22T19:47:47.201Z,12.95
2018-06-22T19:50:20.755Z,12.92
2018-06-22T19:52:54.264Z,13.00
2018-06-22T19:55:22.971Z,12.91
2018-06-22T19:57:51.412Z,13.07
2018-06-22T20:00:19.827Z,13.12
2018-06-22T20:02:48.272Z,13.08
2018-06-22T20:05:16.768Z,13.07
2018-06-22T20:07:45.175Z,12.99
2018-06-22T20:10:13.624Z,12.87
2018-06-22T20:12:42.071Z,12.80
2018-06-22T20:15:10.528Z,12.68
2018-06-22T20:17:38.993Z,12.68
2018-06-22T20:20:07.836Z,12.62
2018-06-22T20:22:36.419Z,12.61
2018-06-22T20:25:10.100Z,12.49
2018-06-22T20:27:38.563Z,12.38
2018-06-22T20:30:06.987Z,12.43
2018-06-22T20:32:35.428Z,12.31
2018-06-22T20:37:15.547Z,12.24
2018-06-22T20:39:49.458Z,12.41
2018-06-22T20:42:23.193Z,12.41
2018-06-22T20:44:56.878Z,12.33
2018-06-22T20:47:30.649Z,12.31
2018-06-22T20:50:04.438Z,12.28
2018-06-22T20:52:32.928Z,12.26
2018-06-22T20:55:01.399Z,12.27
2018-06-22T20:57:30.475Z,12.27
2018-06-22T20:59:59.055Z,12.30
2018-06-22T21:02:27.463Z,12.37
2018-06-22T21:04:56.207Z,12.42
2018-06-22T21:07:24.964Z,12.50
2018-06-22T21:09:53.623Z,12.45
2018-06-22T21:12:26.256Z,12.50
2018-06-22T21:14:50.515Z,12.58
2018-06-22T21:17:19.464Z,12.49
2018-06-22T21:19:48.132Z,12.48
2018-06-22T21:22:16.684Z,12.39
2018-06-22T21:24:45.154Z,12.34
2018-06-22T21:27:18.818Z,12.39
2018-06-22T21:29:52.636Z,12.26
2018-06-22T21:32:26.131Z,12.33
2018-06-22T21:34:59.615Z,12.32
2018-06-22T21:37:33.363Z,12.15
2018-06-22T21:40:01.933Z,12.12
2018-06-22T21:42:30.303Z,12.01
2018-06-22T21:44:58.707Z,12.14
2018-06-22T21:47:27.167Z,12.05
2018-06-22T21:49:55.558Z,12.14
2018-06-22T21:52:24.034Z,12.14
2018-06-22T21:54:52.492Z,12.11
2018-06-22T21:57:20.965Z,12.05
2018-06-22T21:59:49.559Z,12.12
2018-06-22T22:02:18.006Z,12.11
2018-06-22T22:04:46.426Z,12.18
2018-06-22T22:07:14.858Z,12.19
2018-06-22T22:09:44.274Z,12.14
2018-06-22T22:12:12.835Z,12.19
2018-06-22T22:14:42.091Z,12.08
2018-06-22T22:17:10.527Z,12.16
2018-06-22T22:19:39.612Z,12.26
2018-06-22T22:22:08.540Z,12.25
2018-06-22T22:24:36.986Z,12.24
2018-06-22T22:27:05.552Z,12.26
2018-06-22T22:29:34.138Z,12.28
2018-06-22T22:32:02.583Z,12.26
2018-06-22T22:34:31.033Z,12.28
2018-06-22T22:36:59.484Z,12.24
2018-06-22T22:39:27.919Z,12.21
2018-06-22T22:41:56.396Z,12.13
2018-06-22T22:44:24.843Z,12.12
2018-06-22T22:46:53.275Z,11.95
2018-06-22T22:49:21.735Z,12.04
2018-06-22T22:51:50.164Z,11.98
2018-06-22T22:54:18.585Z,11.93
2018-06-22T22:56:47.051Z,11.90
2018-06-22T22:59:15.492Z,11.85
2018-06-22T23:01:43.900Z,11.93
2018-06-22T23:04:12.316Z,11.77
2018-06-22T23:06:40.704Z,11.85
2018-06-22T23:09:09.748Z,11.83
2018-06-22T23:11:38.185Z,11.75
2018-06-22T23:14:06.879Z,11.80
2018-06-22T23:16:35.507Z,11.63
2018-06-22T23:19:04.079Z,11.65
2018-06-22T23:21:32.523Z,11.67
2018-06-22T23:24:00.962Z,11.67
2018-06-22T23:26:29.402Z,11.63
2018-06-22T23:28:57.811Z,11.58
2018-06-22T23:31:26.349Z,11.56
2018-06-22T23:33:54.785Z,11.56
2018-06-22T23:36:23.207Z,11.57
2018-06-22T23:38:51.680Z,11.63
2018-06-22T23:41:20.135Z,11.59
2018-06-22T23:43:48.616Z,11.74
2018-06-22T23:46:17.119Z,11.81
2018-06-22T23:48:45.728Z,11.77
2018-06-22T23:51:14.189Z,11.74
2018-06-22T23:53:42.579Z,11.78
2018-06-22T23:56:11.197Z,11.73
2018-06-22T23:58:39.606Z,11.84
